sensor_id;sensor_type;location;lat;lon;timestamp;P1;durP1;ratioP1;P2;durP2;ratioP2
21777;SDS011;11050;52.222;20.916;2023-04-07T00:01:47;27.10;;;15.53;;
21777;SDS011;11050;52.222;20.916;2023-04-07T00:04:12;24.57;;;14.53;;
21777;SDS011;11050;52.222;20.916;2023-04-07T00:06:38;29.23;;;15.30;;
21777;SDS011;11050;52.222;20.916;2023-04-07T00:09:04;28.07;;;14.90;;
21777;SDS011;11050;52.222;20.916;2023-04-07T00:11:30;24.53;;;14.93;;
21777;SDS011;11050;52.222;20.916;2023-04-07T00:13:56;25.83;;;14.90;;
21777;SDS011;11050;52.222;20.916;2023-04-07T00:16:22;24.00;;;14.50;;
21777;SDS011;11050;52.222;20.916;2023-04-07T00:18:48;24.80;;;14.40;;
21777;SDS011;11050;52.222;20.916;2023-04-07T00:21:14;30.10;;;15.80;;
21777;SDS011;11050;52.222;20.916;2023-04-07T00:23:40;27.70;;;15.10;;
21777;SDS011;11050;52.222;20.916;2023-04-07T00:26:06;29.53;;;15.03;;
21777;SDS011;11050;52.222;20.916;2023-04-07T00:28:32;31.50;;;17.23;;
21777;SDS011;11050;52.222;20.916;2023-04-07T00:30:58;32.10;;;17.17;;
21777;SDS011;11050;52.222;20.916;2023-04-07T00:33:24;27.10;;;16.27;;
21777;SDS011;11050;52.222;20.916;2023-04-07T00:35:50;30.03;;;16.27;;
21777;SDS011;11050;52.222;20.916;2023-04-07T00:38:15;30.17;;;15.53;;
21777;SDS011;11050;52.222;20.916;2023-04-07T00:40:41;29.77;;;15.80;;
21777;SDS011;11050;52.222;20.916;2023-04-07T00:43:07;28.20;;;15.33;;
21777;SDS011;11050;52.222;20.916;2023-04-07T00:45:33;30.00;;;16.33;;
21777;SDS011;11050;52.222;20.916;2023-04-07T00:48:00;28.70;;;15.80;;
21777;SDS011;11050;52.222;20.916;2023-04-07T00:50:26;29.03;;;15.63;;
21777;SDS011;11050;52.222;20.916;2023-04-07T00:52:52;30.50;;;16.63;;
21777;SDS011;11050;52.222;20.916;2023-04-07T00:55:20;30.03;;;16.77;;
21777;SDS011;11050;52.222;20.916;2023-04-07T00:57:47;28.60;;;16.53;;
21777;SDS011;11050;52.222;20.916;2023-04-07T01:00:13;27.70;;;15.70;;
21777;SDS011;11050;52.222;20.916;2023-04-07T01:02:58;27.13;;;15.73;;
21777;SDS011;11050;52.222;20.916;2023-04-07T01:05:46;31.27;;;16.13;;
21777;SDS011;11050;52.222;20.916;2023-04-07T01:11:00;34.27;;;17.37;;
21777;SDS011;11050;52.222;20.916;2023-04-07T01:13:49;25.00;;;15.93;;
21777;SDS011;11050;52.222;20.916;2023-04-07T01:16:27;27.77;;;15.83;;
21777;SDS011;11050;52.222;20.916;2023-04-07T01:19:00;28.67;;;16.23;;
21777;SDS011;11050;52.222;20.916;2023-04-07T01:21:41;29.83;;;16.83;;
21777;SDS011;11050;52.222;20.916;2023-04-07T01:26:59;28.07;;;16.40;;
21777;SDS011;11050;52.222;20.916;2023-04-07T01:29:44;26.53;;;14.63;;
21777;SDS011;11050;52.222;20.916;2023-04-07T01:32:12;31.13;;;17.90;;
21777;SDS011;11050;52.222;20.916;2023-04-07T01:34:42;27.90;;;15.73;;
21777;SDS011;11050;52.222;20.916;2023-04-07T01:37:12;28.77;;;16.60;;
21777;SDS011;11050;52.222;20.916;2023-04-07T01:39:41;33.00;;;16.97;;
21777;SDS011;11050;52.222;20.916;2023-04-07T01:42:07;29.77;;;16.93;;
21777;SDS011;11050;52.222;20.916;2023-04-07T01:44:34;30.37;;;17.07;;
21777;SDS011;11050;52.222;20.916;2023-04-07T01:47:01;29.70;;;16.83;;
21777;SDS011;11050;52.222;20.916;2023-04-07T01:49:29;31.27;;;17.57;;
21777;SDS011;11050;52.222;20.916;2023-04-07T01:51:56;29.40;;;16.80;;
21777;SDS011;11050;52.222;20.916;2023-04-07T01:54:24;33.63;;;17.80;;
21777;SDS011;11050;52.222;20.916;2023-04-07T01:56:51;37.77;;;19.23;;
21777;SDS011;11050;52.222;20.916;2023-04-07T01:59:17;34.47;;;18.83;;
21777;SDS011;11050;52.222;20.916;2023-04-07T02:01:42;36.03;;;20.27;;
21777;SDS011;11050;52.222;20.916;2023-04-07T02:06:42;33.13;;;17.97;;
21777;SDS011;11050;52.222;20.916;2023-04-07T02:09:14;35.17;;;19.00;;
21777;SDS011;11050;52.222;20.916;2023-04-07T02:11:41;32.83;;;17.93;;
21777;SDS011;11050;52.222;20.916;2023-04-07T02:14:10;58.53;;;26.67;;
21777;SDS011;11050;52.222;20.916;2023-04-07T02:16:39;73.23;;;36.87;;
21777;SDS011;11050;52.222;20.916;2023-04-07T02:19:07;75.70;;;38.90;;
21777;SDS011;11050;52.222;20.916;2023-04-07T02:21:33;59.17;;;30.73;;
21777;SDS011;11050;52.222;20.916;2023-04-07T02:24:01;48.97;;;27.10;;
21777;SDS011;11050;52.222;20.916;2023-04-07T02:26:36;45.27;;;23.53;;
21777;SDS011;11050;52.222;20.916;2023-04-07T02:29:02;39.03;;;21.17;;
21777;SDS011;11050;52.222;20.916;2023-04-07T02:31:28;40.73;;;21.23;;
21777;SDS011;11050;52.222;20.916;2023-04-07T02:33:54;40.30;;;21.87;;
21777;SDS011;11050;52.222;20.916;2023-04-07T02:36:20;39.40;;;20.90;;
21777;SDS011;11050;52.222;20.916;2023-04-07T02:38:46;38.53;;;21.67;;
21777;SDS011;11050;52.222;20.916;2023-04-07T02:41:11;40.53;;;21.07;;
21777;SDS011;11050;52.222;20.916;2023-04-07T02:43:37;34.73;;;20.70;;
21777;SDS011;11050;52.222;20.916;2023-04-07T02:46:03;68.50;;;31.53;;
21777;SDS011;11050;52.222;20.916;2023-04-07T02:48:29;65.03;;;33.03;;
21777;SDS011;11050;52.222;20.916;2023-04-07T02:50:54;59.40;;;29.73;;
21777;SDS011;11050;52.222;20.916;2023-04-07T02:53:20;66.00;;;30.87;;
21777;SDS011;11050;52.222;20.916;2023-04-07T02:55:46;53.47;;;26.77;;
21777;SDS011;11050;52.222;20.916;2023-04-07T02:58:11;47.90;;;25.27;;
21777;SDS011;11050;52.222;20.916;2023-04-07T03:00:37;49.83;;;25.00;;
21777;SDS011;11050;52.222;20.916;2023-04-07T03:03:03;50.27;;;23.83;;
21777;SDS011;11050;52.222;20.916;2023-04-07T03:05:29;43.80;;;23.70;;
21777;SDS011;11050;52.222;20.916;2023-04-07T03:07:56;41.10;;;22.10;;
21777;SDS011;11050;52.222;20.916;2023-04-07T03:10:21;45.40;;;23.40;;
21777;SDS011;11050;52.222;20.916;2023-04-07T03:12:47;45.27;;;23.13;;
21777;SDS011;11050;52.222;20.916;2023-04-07T03:15:13;45.43;;;23.80;;
21777;SDS011;11050;52.222;20.916;2023-04-07T03:17:39;47.27;;;24.30;;
21777;SDS011;11050;52.222;20.916;2023-04-07T03:20:05;42.73;;;23.27;;
21777;SDS011;11050;52.222;20.916;2023-04-07T03:22:32;37.53;;;21.93;;
21777;SDS011;11050;52.222;20.916;2023-04-07T03:24:57;45.83;;;23.27;;
21777;SDS011;11050;52.222;20.916;2023-04-07T03:27:23;43.47;;;22.70;;
21777;SDS011;11050;52.222;20.916;2023-04-07T03:29:49;37.50;;;21.97;;
21777;SDS011;11050;52.222;20.916;2023-04-07T03:32:15;41.40;;;23.00;;
21777;SDS011;11050;52.222;20.916;2023-04-07T03:34:41;40.37;;;23.10;;
21777;SDS011;11050;52.222;20.916;2023-04-07T03:37:06;45.27;;;23.10;;
21777;SDS011;11050;52.222;20.916;2023-04-07T03:39:32;43.30;;;23.07;;
21777;SDS011;11050;52.222;20.916;2023-04-07T03:42:01;41.50;;;23.13;;
21777;SDS011;11050;52.222;20.916;2023-04-07T03:44:27;48.47;;;24.63;;
21777;SDS011;11050;52.222;20.916;2023-04-07T03:46:53;39.63;;;22.70;;
21777;SDS011;11050;52.222;20.916;2023-04-07T03:49:19;41.33;;;23.67;;
21777;SDS011;11050;52.222;20.916;2023-04-07T03:51:45;41.33;;;23.70;;
21777;SDS011;11050;52.222;20.916;2023-04-07T03:54:10;44.87;;;24.47;;
21777;SDS011;11050;52.222;20.916;2023-04-07T03:56:36;42.90;;;23.53;;
21777;SDS011;11050;52.222;20.916;2023-04-07T03:59:02;46.43;;;24.97;;
21777;SDS011;11050;52.222;20.916;2023-04-07T04:01:28;45.07;;;24.23;;
21777;SDS011;11050;52.222;20.916;2023-04-07T04:03:55;46.57;;;25.00;;
21777;SDS011;11050;52.222;20.916;2023-04-07T04:06:21;44.50;;;24.03;;
21777;SDS011;11050;52.222;20.916;2023-04-07T04:08:46;49.43;;;24.97;;
21777;SDS011;11050;52.222;20.916;2023-04-07T04:11:12;49.30;;;24.90;;
21777;SDS011;11050;52.222;20.916;2023-04-07T04:13:38;45.87;;;25.17;;
21777;SDS011;11050;52.222;20.916;2023-04-07T04:16:03;44.63;;;24.57;;
21777;SDS011;11050;52.222;20.916;2023-04-07T04:18:30;44.67;;;24.07;;
21777;SDS011;11050;52.222;20.916;2023-04-07T04:20:56;41.17;;;23.77;;
21777;SDS011;11050;52.222;20.916;2023-04-07T04:23:22;37.67;;;22.97;;
21777;SDS011;11050;52.222;20.916;2023-04-07T04:25:48;41.13;;;23.50;;
21777;SDS011;11050;52.222;20.916;2023-04-07T04:28:13;47.23;;;25.07;;
21777;SDS011;11050;52.222;20.916;2023-04-07T04:30:39;41.30;;;23.90;;
21777;SDS011;11050;52.222;20.916;2023-04-07T04:33:05;43.13;;;24.50;;
21777;SDS011;11050;52.222;20.916;2023-04-07T04:35:31;42.03;;;24.33;;
21777;SDS011;11050;52.222;20.916;2023-04-07T04:37:57;42.93;;;23.57;;
21777;SDS011;11050;52.222;20.916;2023-04-07T04:40:23;40.97;;;23.73;;
21777;SDS011;11050;52.222;20.916;2023-04-07T04:42:48;41.60;;;24.03;;
21777;SDS011;11050;52.222;20.916;2023-04-07T04:45:14;41.87;;;25.43;;
21777;SDS011;11050;52.222;20.916;2023-04-07T04:47:40;43.07;;;24.17;;
21777;SDS011;11050;52.222;20.916;2023-04-07T04:50:08;39.07;;;22.90;;
21777;SDS011;11050;52.222;20.916;2023-04-07T04:52:35;41.37;;;24.23;;
21777;SDS011;11050;52.222;20.916;2023-04-07T04:55:02;43.97;;;25.20;;
21777;SDS011;11050;52.222;20.916;2023-04-07T04:57:28;42.83;;;23.73;;
21777;SDS011;11050;52.222;20.916;2023-04-07T04:59:53;45.03;;;25.10;;
21777;SDS011;11050;52.222;20.916;2023-04-07T05:02:19;41.33;;;24.10;;
21777;SDS011;11050;52.222;20.916;2023-04-07T05:04:45;42.73;;;25.27;;
21777;SDS011;11050;52.222;20.916;2023-04-07T05:07:11;40.40;;;24.17;;
21777;SDS011;11050;52.222;20.916;2023-04-07T05:09:37;41.03;;;24.90;;
21777;SDS011;11050;52.222;20.916;2023-04-07T05:12:03;43.10;;;25.47;;
21777;SDS011;11050;52.222;20.916;2023-04-07T05:14:29;46.47;;;25.87;;
21777;SDS011;11050;52.222;20.916;2023-04-07T05:16:55;44.87;;;25.33;;
21777;SDS011;11050;52.222;20.916;2023-04-07T05:19:21;49.10;;;27.07;;
21777;SDS011;11050;52.222;20.916;2023-04-07T05:21:46;46.00;;;26.27;;
21777;SDS011;11050;52.222;20.916;2023-04-07T05:24:12;42.23;;;25.43;;
21777;SDS011;11050;52.222;20.916;2023-04-07T05:26:38;42.33;;;25.33;;
21777;SDS011;11050;52.222;20.916;2023-04-07T05:29:04;42.87;;;25.57;;
21777;SDS011;11050;52.222;20.916;2023-04-07T05:31:29;44.30;;;25.80;;
21777;SDS011;11050;52.222;20.916;2023-04-07T05:33:55;47.60;;;26.93;;
21777;SDS011;11050;52.222;20.916;2023-04-07T05:36:21;42.77;;;25.60;;
21777;SDS011;11050;52.222;20.916;2023-04-07T05:38:47;46.80;;;27.93;;
21777;SDS011;11050;52.222;20.916;2023-04-07T05:41:12;43.40;;;26.00;;
21777;SDS011;11050;52.222;20.916;2023-04-07T05:43:38;43.93;;;27.47;;
21777;SDS011;11050;52.222;20.916;2023-04-07T05:46:04;41.30;;;25.53;;
21777;SDS011;11050;52.222;20.916;2023-04-07T05:48:30;42.70;;;25.53;;
21777;SDS011;11050;52.222;20.916;2023-04-07T05:50:55;50.50;;;26.97;;
21777;SDS011;11050;52.222;20.916;2023-04-07T05:53:21;47.50;;;26.50;;
21777;SDS011;11050;52.222;20.916;2023-04-07T05:55:47;47.27;;;27.67;;
21777;SDS011;11050;52.222;20.916;2023-04-07T05:58:13;43.67;;;26.23;;
21777;SDS011;11050;52.222;20.916;2023-04-07T06:00:39;43.37;;;25.50;;
21777;SDS011;11050;52.222;20.916;2023-04-07T06:03:05;38.13;;;25.80;;
21777;SDS011;11050;52.222;20.916;2023-04-07T06:05:31;41.73;;;26.07;;
21777;SDS011;11050;52.222;20.916;2023-04-07T06:07:57;43.33;;;27.47;;
21777;SDS011;11050;52.222;20.916;2023-04-07T06:10:22;42.20;;;25.57;;
21777;SDS011;11050;52.222;20.916;2023-04-07T06:12:48;38.83;;;24.83;;
21777;SDS011;11050;52.222;20.916;2023-04-07T06:15:14;36.73;;;23.67;;
21777;SDS011;11050;52.222;20.916;2023-04-07T06:17:40;35.83;;;24.10;;
21777;SDS011;11050;52.222;20.916;2023-04-07T06:20:06;35.23;;;23.23;;
21777;SDS011;11050;52.222;20.916;2023-04-07T06:22:32;40.03;;;25.13;;
21777;SDS011;11050;52.222;20.916;2023-04-07T06:24:58;36.07;;;22.83;;
21777;SDS011;11050;52.222;20.916;2023-04-07T06:27:23;35.50;;;22.73;;
21777;SDS011;11050;52.222;20.916;2023-04-07T06:29:49;34.50;;;23.77;;
21777;SDS011;11050;52.222;20.916;2023-04-07T06:32:15;38.07;;;22.73;;
21777;SDS011;11050;52.222;20.916;2023-04-07T06:34:41;33.07;;;22.03;;
21777;SDS011;11050;52.222;20.916;2023-04-07T06:37:07;37.13;;;23.70;;
21777;SDS011;11050;52.222;20.916;2023-04-07T06:39:33;35.07;;;22.43;;
21777;SDS011;11050;52.222;20.916;2023-04-07T06:41:58;34.53;;;22.50;;
21777;SDS011;11050;52.222;20.916;2023-04-07T06:44:25;34.10;;;23.60;;
21777;SDS011;11050;52.222;20.916;2023-04-07T06:46:51;35.83;;;22.83;;
21777;SDS011;11050;52.222;20.916;2023-04-07T06:49:19;35.37;;;22.93;;
21777;SDS011;11050;52.222;20.916;2023-04-07T06:51:45;35.27;;;23.03;;
21777;SDS011;11050;52.222;20.916;2023-04-07T06:54:10;33.97;;;23.30;;
21777;SDS011;11050;52.222;20.916;2023-04-07T06:56:38;35.47;;;21.70;;
21777;SDS011;11050;52.222;20.916;2023-04-07T06:59:05;31.77;;;21.63;;
21777;SDS011;11050;52.222;20.916;2023-04-07T07:01:31;31.57;;;22.17;;
21777;SDS011;11050;52.222;20.916;2023-04-07T07:03:57;29.90;;;21.63;;
21777;SDS011;11050;52.222;20.916;2023-04-07T07:06:25;26.97;;;20.47;;
21777;SDS011;11050;52.222;20.916;2023-04-07T07:08:51;32.83;;;22.87;;
21777;SDS011;11050;52.222;20.916;2023-04-07T07:11:17;28.77;;;20.50;;
21777;SDS011;11050;52.222;20.916;2023-04-07T07:13:43;29.70;;;20.00;;
21777;SDS011;11050;52.222;20.916;2023-04-07T07:16:10;31.35;;;20.63;;
21777;SDS011;11050;52.222;20.916;2023-04-07T07:18:36;30.00;;;21.90;;
21777;SDS011;11050;52.222;20.916;2023-04-07T07:21:02;31.43;;;22.07;;
21777;SDS011;11050;52.222;20.916;2023-04-07T07:23:29;31.10;;;21.07;;
21777;SDS011;11050;52.222;20.916;2023-04-07T07:25:55;29.40;;;20.80;;
21777;SDS011;11050;52.222;20.916;2023-04-07T07:28:21;34.60;;;19.70;;
21777;SDS011;11050;52.222;20.916;2023-04-07T07:30:47;29.40;;;20.40;;
21777;SDS011;11050;52.222;20.916;2023-04-07T07:33:13;32.40;;;21.30;;
21777;SDS011;11050;52.222;20.916;2023-04-07T07:35:39;30.77;;;19.63;;
21777;SDS011;11050;52.222;20.916;2023-04-07T07:38:05;30.47;;;21.30;;
21777;SDS011;11050;52.222;20.916;2023-04-07T07:40:31;34.22;;;21.15;;
21777;SDS011;11050;52.222;20.916;2023-04-07T07:42:58;28.17;;;18.95;;
21777;SDS011;11050;52.222;20.916;2023-04-07T07:45:25;26.80;;;18.98;;
21777;SDS011;11050;52.222;20.916;2023-04-07T07:47:51;29.70;;;20.08;;
21777;SDS011;11050;52.222;20.916;2023-04-07T07:50:17;28.90;;;20.30;;
21777;SDS011;11050;52.222;20.916;2023-04-07T07:52:42;28.67;;;20.40;;
21777;SDS011;11050;52.222;20.916;2023-04-07T07:55:08;29.60;;;21.13;;
21777;SDS011;11050;52.222;20.916;2023-04-07T07:57:35;29.63;;;20.17;;
21777;SDS011;11050;52.222;20.916;2023-04-07T08:00:02;28.27;;;18.83;;
21777;SDS011;11050;52.222;20.916;2023-04-07T08:02:28;33.25;;;20.77;;
21777;SDS011;11050;52.222;20.916;2023-04-07T08:04:58;28.43;;;21.00;;
21777;SDS011;11050;52.222;20.916;2023-04-07T08:07:25;28.50;;;20.50;;
21777;SDS011;11050;52.222;20.916;2023-04-07T08:09:51;29.70;;;20.33;;
21777;SDS011;11050;52.222;20.916;2023-04-07T08:12:17;26.80;;;19.77;;
21777;SDS011;11050;52.222;20.916;2023-04-07T08:14:43;31.90;;;20.47;;
21777;SDS011;11050;52.222;20.916;2023-04-07T08:17:09;27.17;;;19.67;;
21777;SDS011;11050;52.222;20.916;2023-04-07T08:19:36;26.27;;;19.23;;
21777;SDS011;11050;52.222;20.916;2023-04-07T08:22:02;26.73;;;18.77;;
21777;SDS011;11050;52.222;20.916;2023-04-07T08:24:28;29.92;;;20.30;;
21777;SDS011;11050;52.222;20.916;2023-04-07T08:26:53;25.00;;;18.83;;
21777;SDS011;11050;52.222;20.916;2023-04-07T08:29:20;28.08;;;19.30;;
21777;SDS011;11050;52.222;20.916;2023-04-07T08:31:45;27.90;;;18.67;;
21777;SDS011;11050;52.222;20.916;2023-04-07T08:34:11;23.65;;;18.38;;
21777;SDS011;11050;52.222;20.916;2023-04-07T08:36:38;23.70;;;17.60;;
21777;SDS011;11050;52.222;20.916;2023-04-07T08:39:03;24.48;;;18.02;;
21777;SDS011;11050;52.222;20.916;2023-04-07T08:44:03;24.60;;;17.20;;
21777;SDS011;11050;52.222;20.916;2023-04-07T08:46:34;21.35;;;16.27;;
21777;SDS011;11050;52.222;20.916;2023-04-07T08:49:06;22.08;;;16.30;;
21777;SDS011;11050;52.222;20.916;2023-04-07T08:51:36;24.33;;;17.42;;
21777;SDS011;11050;52.222;20.916;2023-04-07T08:54:12;24.10;;;16.90;;
21777;SDS011;11050;52.222;20.916;2023-04-07T08:56:40;20.90;;;15.48;;
21777;SDS011;11050;52.222;20.916;2023-04-07T08:59:08;19.60;;;15.70;;
21777;SDS011;11050;52.222;20.916;2023-04-07T09:01:39;21.58;;;15.40;;
21777;SDS011;11050;52.222;20.916;2023-04-07T09:04:06;22.23;;;16.02;;
21777;SDS011;11050;52.222;20.916;2023-04-07T09:06:34;22.52;;;15.77;;
21777;SDS011;11050;52.222;20.916;2023-04-07T09:09:00;25.30;;;16.58;;
21777;SDS011;11050;52.222;20.916;2023-04-07T09:11:33;22.67;;;15.65;;
21777;SDS011;11050;52.222;20.916;2023-04-07T09:14:01;24.20;;;15.30;;
21777;SDS011;11050;52.222;20.916;2023-04-07T09:16:27;19.42;;;15.07;;
21777;SDS011;11050;52.222;20.916;2023-04-07T09:18:55;23.58;;;14.95;;
21777;SDS011;11050;52.222;20.916;2023-04-07T09:21:21;22.65;;;15.23;;
21777;SDS011;11050;52.222;20.916;2023-04-07T09:23:48;20.90;;;16.05;;
21777;SDS011;11050;52.222;20.916;2023-04-07T09:29:00;18.80;;;14.65;;
21777;SDS011;11050;52.222;20.916;2023-04-07T09:31:47;19.52;;;15.07;;
21777;SDS011;11050;52.222;20.916;2023-04-07T09:34:23;21.77;;;15.20;;
21777;SDS011;11050;52.222;20.916;2023-04-07T09:36:50;20.00;;;15.70;;
21777;SDS011;11050;52.222;20.916;2023-04-07T09:39:16;21.13;;;15.68;;
21777;SDS011;11050;52.222;20.916;2023-04-07T09:41:42;21.48;;;15.38;;
21777;SDS011;11050;52.222;20.916;2023-04-07T09:44:07;21.20;;;15.30;;
21777;SDS011;11050;52.222;20.916;2023-04-07T09:46:35;21.90;;;15.90;;
21777;SDS011;11050;52.222;20.916;2023-04-07T09:49:12;21.45;;;15.75;;
21777;SDS011;11050;52.222;20.916;2023-04-07T09:51:39;22.05;;;15.85;;
21777;SDS011;11050;52.222;20.916;2023-04-07T09:57:00;22.40;;;16.42;;
21777;SDS011;11050;52.222;20.916;2023-04-07T09:59:28;22.20;;;16.13;;
21777;SDS011;11050;52.222;20.916;2023-04-07T10:01:55;20.85;;;15.95;;
21777;SDS011;11050;52.222;20.916;2023-04-07T10:04:25;20.48;;;16.00;;
21777;SDS011;11050;52.222;20.916;2023-04-07T10:06:53;21.20;;;15.07;;
21777;SDS011;11050;52.222;20.916;2023-04-07T10:09:24;21.23;;;14.70;;
21777;SDS011;11050;52.222;20.916;2023-04-07T10:11:53;23.05;;;15.35;;
21777;SDS011;11050;52.222;20.916;2023-04-07T10:14:21;19.35;;;15.27;;
21777;SDS011;11050;52.222;20.916;2023-04-07T10:16:55;19.65;;;14.55;;
21777;SDS011;11050;52.222;20.916;2023-04-07T10:19:23;18.77;;;15.30;;
21777;SDS011;11050;52.222;20.916;2023-04-07T10:21:55;24.40;;;15.63;;
21777;SDS011;11050;52.222;20.916;2023-04-07T10:27:48;22.45;;;16.15;;
21777;SDS011;11050;52.222;20.916;2023-04-07T10:30:24;22.20;;;16.15;;
21777;SDS011;11050;52.222;20.916;2023-04-07T10:32:54;19.13;;;15.23;;
21777;SDS011;11050;52.222;20.916;2023-04-07T10:35:21;19.15;;;15.73;;
21777;SDS011;11050;52.222;20.916;2023-04-07T10:40:31;21.38;;;15.15;;
21777;SDS011;11050;52.222;20.916;2023-04-07T10:42:58;19.75;;;15.10;;
21777;SDS011;11050;52.222;20.916;2023-04-07T10:48:19;22.52;;;16.42;;
21777;SDS011;11050;52.222;20.916;2023-04-07T10:53:31;20.95;;;14.80;;
21777;SDS011;11050;52.222;20.916;2023-04-07T10:56:00;18.23;;;14.20;;
21777;SDS011;11050;52.222;20.916;2023-04-07T10:58:32;20.85;;;14.55;;
21777;SDS011;11050;52.222;20.916;2023-04-07T11:03:27;18.70;;;15.48;;
21777;SDS011;11050;52.222;20.916;2023-04-07T11:06:11;19.58;;;15.00;;
21777;SDS011;11050;52.222;20.916;2023-04-07T11:08:39;23.58;;;15.10;;
21777;SDS011;11050;52.222;20.916;2023-04-07T11:11:10;20.30;;;14.80;;
21777;SDS011;11050;52.222;20.916;2023-04-07T11:13:45;21.05;;;14.77;;
21777;SDS011;11050;52.222;20.916;2023-04-07T11:16:14;20.15;;;15.32;;
21777;SDS011;11050;52.222;20.916;2023-04-07T11:18:58;20.58;;;14.35;;
21777;SDS011;11050;52.222;20.916;2023-04-07T11:21:24;19.88;;;14.85;;
21777;SDS011;11050;52.222;20.916;2023-04-07T11:23:49;22.17;;;15.10;;
21777;SDS011;11050;52.222;20.916;2023-04-07T11:26:15;18.13;;;14.95;;
21777;SDS011;11050;52.222;20.916;2023-04-07T11:28:45;18.00;;;13.85;;
21777;SDS011;11050;52.222;20.916;2023-04-07T11:31:26;16.23;;;13.20;;
21777;SDS011;11050;52.222;20.916;2023-04-07T11:33:56;19.67;;;13.60;;
21777;SDS011;11050;52.222;20.916;2023-04-07T11:36:32;20.45;;;13.93;;
21777;SDS011;11050;52.222;20.916;2023-04-07T11:39:02;14.82;;;12.27;;
21777;SDS011;11050;52.222;20.916;2023-04-07T11:41:30;16.67;;;12.18;;
21777;SDS011;11050;52.222;20.916;2023-04-07T11:46:34;17.45;;;12.57;;
21777;SDS011;11050;52.222;20.916;2023-04-07T11:49:11;16.42;;;12.18;;
21777;SDS011;11050;52.222;20.916;2023-04-07T11:51:38;21.60;;;12.82;;
21777;SDS011;11050;52.222;20.916;2023-04-07T11:54:07;13.90;;;12.18;;
21777;SDS011;11050;52.222;20.916;2023-04-07T11:56:40;18.75;;;12.77;;
21777;SDS011;11050;52.222;20.916;2023-04-07T11:59:24;15.68;;;12.55;;
21777;SDS011;11050;52.222;20.916;2023-04-07T12:01:50;17.52;;;12.48;;
21777;SDS011;11050;52.222;20.916;2023-04-07T12:04:17;19.60;;;13.50;;
21777;SDS011;11050;52.222;20.916;2023-04-07T12:06:44;19.30;;;14.13;;
21777;SDS011;11050;52.222;20.916;2023-04-07T12:09:25;18.33;;;14.07;;
21777;SDS011;11050;52.222;20.916;2023-04-07T12:11:54;20.95;;;14.35;;
21777;SDS011;11050;52.222;20.916;2023-04-07T12:14:22;16.92;;;14.00;;
21777;SDS011;11050;52.222;20.916;2023-04-07T12:16:49;16.88;;;13.90;;
21777;SDS011;11050;52.222;20.916;2023-04-07T12:19:15;21.90;;;14.15;;
21777;SDS011;11050;52.222;20.916;2023-04-07T12:21:40;20.40;;;15.40;;
21777;SDS011;11050;52.222;20.916;2023-04-07T12:24:07;17.33;;;14.10;;
21777;SDS011;11050;52.222;20.916;2023-04-07T12:26:33;17.42;;;13.43;;
21777;SDS011;11050;52.222;20.916;2023-04-07T12:28:59;17.27;;;13.40;;
21777;SDS011;11050;52.222;20.916;2023-04-07T12:31:29;14.68;;;12.23;;
21777;SDS011;11050;52.222;20.916;2023-04-07T12:33:56;17.45;;;12.70;;
21777;SDS011;11050;52.222;20.916;2023-04-07T12:36:23;17.23;;;12.70;;
21777;SDS011;11050;52.222;20.916;2023-04-07T12:38:51;15.98;;;12.75;;
21777;SDS011;11050;52.222;20.916;2023-04-07T12:41:18;16.35;;;14.02;;
21777;SDS011;11050;52.222;20.916;2023-04-07T12:43:44;15.07;;;12.50;;
21777;SDS011;11050;52.222;20.916;2023-04-07T12:46:10;15.88;;;13.43;;
21777;SDS011;11050;52.222;20.916;2023-04-07T12:48:36;15.30;;;12.68;;
21777;SDS011;11050;52.222;20.916;2023-04-07T12:51:06;17.98;;;12.63;;
21777;SDS011;11050;52.222;20.916;2023-04-07T12:53:32;19.05;;;12.60;;
21777;SDS011;11050;52.222;20.916;2023-04-07T12:55:58;15.48;;;12.52;;
21777;SDS011;11050;52.222;20.916;2023-04-07T12:58:24;14.70;;;11.52;;
21777;SDS011;11050;52.222;20.916;2023-04-07T13:00:53;17.45;;;12.60;;
21777;SDS011;11050;52.222;20.916;2023-04-07T13:03:19;15.73;;;11.15;;
21777;SDS011;11050;52.222;20.916;2023-04-07T13:05:44;13.43;;;10.50;;
21777;SDS011;11050;52.222;20.916;2023-04-07T13:08:10;9.88;;;7.80;;
21777;SDS011;11050;52.222;20.916;2023-04-07T13:10:36;6.57;;;5.13;;
21777;SDS011;11050;52.222;20.916;2023-04-07T13:13:02;5.03;;;4.15;;
21777;SDS011;11050;52.222;20.916;2023-04-07T13:15:28;4.32;;;3.38;;
21777;SDS011;11050;52.222;20.916;2023-04-07T13:17:53;5.07;;;3.75;;
21777;SDS011;11050;52.222;20.916;2023-04-07T13:20:19;3.85;;;3.40;;
21777;SDS011;11050;52.222;20.916;2023-04-07T13:22:46;6.03;;;3.78;;
21777;SDS011;11050;52.222;20.916;2023-04-07T13:25:12;4.82;;;3.28;;
21777;SDS011;11050;52.222;20.916;2023-04-07T13:27:38;5.43;;;3.50;;
21777;SDS011;11050;52.222;20.916;2023-04-07T13:30:04;5.55;;;3.38;;
21777;SDS011;11050;52.222;20.916;2023-04-07T13:32:31;8.85;;;3.28;;
21777;SDS011;11050;52.222;20.916;2023-04-07T13:34:56;5.25;;;3.15;;
21777;SDS011;11050;52.222;20.916;2023-04-07T13:37:23;7.63;;;3.63;;
21777;SDS011;11050;52.222;20.916;2023-04-07T13:39:50;4.15;;;3.03;;
21777;SDS011;11050;52.222;20.916;2023-04-07T13:42:16;4.68;;;3.13;;
21777;SDS011;11050;52.222;20.916;2023-04-07T13:44:44;5.55;;;3.65;;
21777;SDS011;11050;52.222;20.916;2023-04-07T13:47:12;5.35;;;3.33;;
21777;SDS011;11050;52.222;20.916;2023-04-07T13:49:43;4.10;;;3.10;;
21777;SDS011;11050;52.222;20.916;2023-04-07T13:52:13;4.07;;;3.10;;
21777;SDS011;11050;52.222;20.916;2023-04-07T13:54:40;5.35;;;3.67;;
21777;SDS011;11050;52.222;20.916;2023-04-07T13:57:06;4.60;;;3.30;;
21777;SDS011;11050;52.222;20.916;2023-04-07T13:59:32;3.92;;;3.08;;
21777;SDS011;11050;52.222;20.916;2023-04-07T14:01:58;4.03;;;2.97;;
21777;SDS011;11050;52.222;20.916;2023-04-07T14:04:24;4.70;;;3.20;;
21777;SDS011;11050;52.222;20.916;2023-04-07T14:06:50;4.85;;;3.17;;
21777;SDS011;11050;52.222;20.916;2023-04-07T14:09:15;4.35;;;3.00;;
21777;SDS011;11050;52.222;20.916;2023-04-07T14:11:41;4.68;;;3.50;;
21777;SDS011;11050;52.222;20.916;2023-04-07T14:14:07;4.38;;;3.30;;
21777;SDS011;11050;52.222;20.916;2023-04-07T14:16:33;4.90;;;3.13;;
21777;SDS011;11050;52.222;20.916;2023-04-07T14:18:58;4.30;;;3.20;;
21777;SDS011;11050;52.222;20.916;2023-04-07T14:21:24;4.72;;;3.72;;
21777;SDS011;11050;52.222;20.916;2023-04-07T14:23:53;5.88;;;3.53;;
21777;SDS011;11050;52.222;20.916;2023-04-07T14:26:19;4.57;;;3.45;;
21777;SDS011;11050;52.222;20.916;2023-04-07T14:28:45;3.97;;;3.45;;
21777;SDS011;11050;52.222;20.916;2023-04-07T14:31:12;4.65;;;3.33;;
21777;SDS011;11050;52.222;20.916;2023-04-07T14:33:39;4.75;;;3.05;;
21777;SDS011;11050;52.222;20.916;2023-04-07T14:36:07;5.25;;;3.72;;
21777;SDS011;11050;52.222;20.916;2023-04-07T14:38:33;3.63;;;3.20;;
21777;SDS011;11050;52.222;20.916;2023-04-07T14:40:59;4.90;;;3.13;;
21777;SDS011;11050;52.222;20.916;2023-04-07T14:43:27;3.47;;;2.70;;
21777;SDS011;11050;52.222;20.916;2023-04-07T14:45:53;3.63;;;2.90;;